Time;durP1;ratioP1;P1;durP2;ratioP2;P2;SDS_P1;SDS_P2;PMS_P1;PMS_P2;Temp;Humidity;BMP_temperature;BMP_pressure;BME280_temperature;BME280_humidity;BME280_pressure;Samples;Min_cycle;Max_cycle;Signal;HPM_P1;HPM_P2
2023/07/16 00:04:08;;;;;;;0.93;0.60;;;;;;;;;;12825888;23;20029;-90
2023/07/16 00:09:13;;;;;;;0.80;0.75;;;;;;;;;;12825339;23;20072;-90
2023/07/16 00:14:16;;;;;;;2.10;0.80;;;;;;;;;;12825758;23;20025;-89
2023/07/16 00:19:20;;;;;;;1.08;0.70;;;;;;;;;;12825406;23;20074;-90
2023/07/16 00:24:24;;;;;;;2.22;0.90;;;;;;;;;;12824613;23;20032;-89
2023/07/16 00:29:28;;;;;;;2.03;0.75;;;;;;;;;;12824914;23;20476;-90
2023/07/16 00:34:31;;;;;;;3.80;1.05;;;;;;;;;;12825055;23;20076;-90
2023/07/16 00:39:36;;;;;;;1.30;1.00;;;;;;;;;;12824892;23;20017;-89
2023/07/16 00:44:40;;;;;;;1.23;0.73;;;;;;;;;;12824149;23;20035;-90
2023/07/16 00:49:43;;;;;;;2.85;0.88;;;;;;;;;;12824678;23;20028;-90
2023/07/16 00:54:49;;;;;;;1.88;0.68;;;;;;;;;;12824136;23;20484;-89
2023/07/16 00:59:53;;;;;;;2.93;0.90;;;;;;;;;;12823526;23;20020;-90
2023/07/16 01:04:56;;;;;;;2.05;0.90;;;;;;;;;;12824438;23;20462;-89
2023/07/16 01:10:02;;;;;;;2.47;1.20;;;;;;;;;;12823687;23;20355;-90
2023/07/16 01:15:06;;;;;;;;;;;;;;;;;;12824540;23;20024;-90
2023/07/16 01:20:11;;;;;;;2.53;1.10;;;;;;;;;;12823760;23;19922;-89
2023/07/16 01:25:41;;;;;;;1.90;0.90;;;;;;;;;;12821529;23;20027;-89
2023/07/16 01:30:46;;;;;;;2.05;0.90;;;;;;;;;;12823739;23;20025;-89
2023/07/16 01:35:51;;;;;;;1.48;0.80;;;;;;;;;;12823478;23;20033;-90
2023/07/16 01:40:54;;;;;;;3.00;1.08;;;;;;;;;;12824190;23;20025;-90
2023/07/16 01:45:59;;;;;;;2.90;0.88;;;;;;;;;;12822823;23;20024;-89
2023/07/16 01:51:03;;;;;;;2.45;1.10;;;;;;;;;;12823355;23;20207;-89
2023/07/16 01:56:06;;;;;;;3.40;1.13;;;;;;;;;;12855257;23;20031;-89
2023/07/16 02:01:12;;;;;;;2.15;1.13;;;;;;;;;;12824452;23;20370;-90
2023/07/16 02:06:15;;;;;;;3.63;1.10;;;;;;;;;;12823759;23;20031;-90
2023/07/16 02:11:19;;;;;;;1.40;0.60;;;;;;;;;;12825684;23;20047;-90
2023/07/16 02:16:25;;;;;;;5.53;1.57;;;;;;;;;;12825122;23;20025;-89
2023/07/16 02:21:30;;;;;;;1.45;0.80;;;;;;;;;;12827332;23;20521;-90
2023/07/16 02:26:34;;;;;;;4.03;1.50;;;;;;;;;;12826979;23;20509;-89
2023/07/16 02:31:39;;;;;;;1.88;0.90;;;;;;;;;;12827295;23;20020;-89
2023/07/16 02:36:43;;;;;;;3.08;0.80;;;;;;;;;;12826649;23;20462;-89
2023/07/16 02:41:46;;;;;;;2.28;0.90;;;;;;;;;;12826794;23;20021;-89
2023/07/16 02:46:51;;;;;;;2.08;0.90;;;;;;;;;;12827123;23;20056;-89
2023/07/16 02:51:54;;;;;;;1.52;0.98;;;;;;;;;;12826461;23;20025;-89
2023/07/16 02:56:58;;;;;;;2.25;0.98;;;;;;;;;;12826217;23;20029;-89
2023/07/16 03:02:04;;;;;;;3.17;1.13;;;;;;;;;;12826602;23;20100;-89
2023/07/16 03:07:07;;;;;;;2.80;1.17;;;;;;;;;;12826286;23;20033;-89
2023/07/16 03:12:11;;;;;;;1.38;0.50;;;;;;;;;;12827258;23;20229;-90
2023/07/16 03:17:16;;;;;;;2.00;0.90;;;;;;;;;;12826072;23;20098;-90
2023/07/16 03:22:19;;;;;;;1.58;0.57;;;;;;;;;;12826439;23;20442;-90
2023/07/16 03:27:23;;;;;;;1.33;0.70;;;;;;;;;;12825769;23;20075;-90
2023/07/16 03:32:34;;;;;;;2.30;0.60;;;;;;;;;;12826361;23;20104;-90
2023/07/16 03:37:48;;;;;;;1.73;0.57;;;;;;;;;;12826131;23;20153;-90
2023/07/16 03:42:53;;;;;;;1.75;0.90;;;;;;;;;;12825309;23;20023;-90
2023/07/16 03:47:57;;;;;;;1.08;0.60;;;;;;;;;;12825827;23;20378;-90
2023/07/16 03:53:03;;;;;;;1.70;0.50;;;;;;;;;;12826238;23;20024;-90
2023/07/16 03:58:06;;;;;;;1.10;0.40;;;;;;;;;;12825151;23;20027;-90
2023/07/16 04:03:11;;;;;;;1.92;0.50;;;;;;;;;;12825312;23;20450;-90
2023/07/16 04:08:15;;;;;;;1.40;0.30;;;;;;;;;;12825990;23;20468;-90
2023/07/16 04:13:18;;;;;;;0.47;0.30;;;;;;;;;;12825580;23;20074;-90
2023/07/16 04:18:24;;;;;;;0.82;0.47;;;;;;;;;;12825535;23;20074;-90
2023/07/16 04:23:27;;;;;;;0.85;0.70;;;;;;;;;;12825497;23;20017;-89
2023/07/16 04:28:31;;;;;;;2.67;0.70;;;;;;;;;;12852120;23;20021;-90
2023/07/16 04:33:36;;;;;;;1.77;0.70;;;;;;;;;;12825318;23;20020;-90
2023/07/16 04:38:39;;;;;;;2.10;0.60;;;;;;;;;;12824691;23;20365;-89
2023/07/16 04:43:43;;;;;;;3.70;1.02;;;;;;;;;;12824719;23;20028;-89
2023/07/16 04:48:48;;;;;;;3.25;1.13;;;;;;;;;;12824509;23;20474;-89
2023/07/16 04:53:52;;;;;;;3.20;0.98;;;;;;;;;;12824905;23;20024;-89
2023/07/16 04:58:55;;;;;;;2.88;1.20;;;;;;;;;;12824489;23;20021;-89
2023/07/16 05:04:00;;;;;;;2.78;1.48;;;;;;;;;;12824502;23;20397;-88
2023/07/16 05:09:04;;;;;;;4.13;1.58;;;;;;;;;;12824377;23;20050;-89
2023/07/16 05:14:07;;;;;;;5.63;1.80;;;;;;;;;;12824239;23;20401;-89
2023/07/16 05:19:12;;;;;;;2.72;1.40;;;;;;;;;;12824112;23;20096;-89
2023/07/16 05:24:16;;;;;;;4.40;1.38;;;;;;;;;;12850587;23;20034;-89
2023/07/16 05:29:19;;;;;;;3.75;1.42;;;;;;;;;;12823844;23;20035;-89
2023/07/16 05:34:24;;;;;;;4.47;1.70;;;;;;;;;;12863537;23;20086;-90
2023/07/16 05:39:28;;;;;;;4.40;1.95;;;;;;;;;;12824779;23;20079;-89
2023/07/16 05:44:31;;;;;;;5.70;1.70;;;;;;;;;;12822740;23;20025;-89
2023/07/16 05:49:36;;;;;;;3.92;1.85;;;;;;;;;;12823610;23;20313;-89
2023/07/16 05:54:40;;;;;;;6.38;2.50;;;;;;;;;;12824067;23;20041;-88
2023/07/16 05:59:43;;;;;;;7.07;2.35;;;;;;;;;;12851173;23;20047;-88
2023/07/16 06:04:48;;;;;;;3.03;1.50;;;;;;;;;;12824186;23;20028;-88
2023/07/16 06:09:51;;;;;;;7.80;2.70;;;;;;;;;;12824617;23;20028;-88
2023/07/16 06:14:55;;;;;;;4.18;1.88;;;;;;;;;;12824423;23;20032;-89
2023/07/16 06:20:00;;;;;;;1.45;1.20;;;;;;;;;;12824630;23;20377;-88
2023/07/16 06:25:04;;;;;;;3.05;1.60;;;;;;;;;;12851085;23;20692;-89
2023/07/16 06:30:08;;;;;;;4.13;2.05;;;;;;;;;;12824925;23;20025;-89
2023/07/16 06:35:14;;;;;;;3.53;1.88;;;;;;;;;;12823923;23;20025;-89
2023/07/16 06:40:17;;;;;;;4.47;1.52;;;;;;;;;;12823785;23;20024;-88
2023/07/16 06:45:22;;;;;;;5.80;2.05;;;;;;;;;;12823012;23;20374;-88
2023/07/16 06:50:27;;;;;;;5.20;2.40;;;;;;;;;;12824012;23;20126;-88
2023/07/16 06:55:30;;;;;;;4.05;1.98;;;;;;;;;;12824819;23;20107;-87
2023/07/16 07:00:34;;;;;;;4.75;2.10;;;;;;;;;;12861423;23;20029;-89
2023/07/16 07:05:42;;;;;;;4.78;1.88;;;;;;;;;;12827063;23;20409;-88
2023/07/16 07:10:45;;;;;;;5.35;1.95;;;;;;;;;;12827662;23;20024;-89
2023/07/16 07:15:49;;;;;;;4.15;2.00;;;;;;;;;;12853187;23;20028;-88
2023/07/16 07:20:54;;;;;;;5.95;2.40;;;;;;;;;;12825971;23;20488;-89
2023/07/16 07:25:57;;;;;;;6.05;2.28;;;;;;;;;;12826684;23;20024;-89
2023/07/16 07:31:02;;;;;;;7.53;2.28;;;;;;;;;;12826250;23;20103;-88
2023/07/16 07:36:06;;;;;;;5.45;2.60;;;;;;;;;;12852868;23;20025;-88
2023/07/16 07:41:10;;;;;;;5.47;2.03;;;;;;;;;;12826575;23;20454;-89
2023/07/16 07:46:14;;;;;;;6.20;2.17;;;;;;;;;;12826534;23;20025;-89
2023/07/16 07:51:19;;;;;;;4.75;1.90;;;;;;;;;;12826859;23;20025;-88
2023/07/16 07:56:22;;;;;;;2.90;1.70;;;;;;;;;;12827077;23;20020;-89
2023/07/16 08:01:26;;;;;;;3.38;1.80;;;;;;;;;;12832309;23;20514;-88
2023/07/16 08:06:31;;;;;;;3.88;2.00;;;;;;;;;;12825927;23;20031;-88
2023/07/16 08:11:35;;;;;;;4.65;2.40;;;;;;;;;;12826344;23;20090;-88
2023/07/16 08:16:38;;;;;;;6.13;2.38;;;;;;;;;;12856202;23;20449;-88
2023/07/16 08:21:45;;;;;;;3.65;1.67;;;;;;;;;;12825806;23;20032;-89
2023/07/16 08:26:49;;;;;;;3.55;1.80;;;;;;;;;;12825805;23;20091;-89
2023/07/16 08:31:52;;;;;;;3.97;1.70;;;;;;;;;;12824960;23;20020;-87
2023/07/16 08:36:57;;;;;;;6.20;2.20;;;;;;;;;;12826189;23;20025;-88
2023/07/16 08:42:01;;;;;;;3.63;1.60;;;;;;;;;;12851042;23;20024;-88
2023/07/16 08:47:05;;;;;;;3.75;2.00;;;;;;;;;;12851752;23;20524;-88
2023/07/16 08:52:11;;;;;;;3.85;1.80;;;;;;;;;;12823100;23;20024;-87
2023/07/16 08:57:15;;;;;;;5.32;2.47;;;;;;;;;;12824458;23;20024;-87
2023/07/16 09:02:19;;;;;;;3.90;2.10;;;;;;;;;;12850804;23;20027;-88
2023/07/16 09:07:24;;;;;;;4.18;2.30;;;;;;;;;;12825313;23;20397;-88
2023/07/16 09:12:29;;;;;;;3.00;2.00;;;;;;;;;;12825222;23;20013;-88
2023/07/16 09:17:34;;;;;;;4.27;2.30;;;;;;;;;;12851336;23;20028;-87
2023/07/16 09:22:39;;;;;;;7.10;3.60;;;;;;;;;;12824756;23;20031;-88
2023/07/16 09:27:43;;;;;;;3.80;2.13;;;;;;;;;;12824819;23;20096;-88
2023/07/16 09:32:47;;;;;;;4.55;2.10;;;;;;;;;;12824503;23;20039;-88
2023/07/16 09:37:52;;;;;;;3.47;2.40;;;;;;;;;;12824795;23;20020;-88
2023/07/16 09:42:56;;;;;;;6.37;2.50;;;;;;;;;;12851311;23;20021;-88
2023/07/16 09:48:00;;;;;;;4.50;2.63;;;;;;;;;;12850911;23;20017;-88
2023/07/16 09:53:07;;;;;;;3.88;2.70;;;;;;;;;;12823994;23;20622;-87
2023/07/16 09:58:13;;;;;;;5.20;2.60;;;;;;;;;;12868249;23;20024;-87
2023/07/16 10:03:17;;;;;;;5.05;2.08;;;;;;;;;;12851062;23;20025;-88
2023/07/16 10:08:22;;;;;;;6.30;2.33;;;;;;;;;;12823751;23;20079;-88
2023/07/16 10:13:25;;;;;;;2.43;1.57;;;;;;;;;;12823604;23;20074;-88
2023/07/16 10:18:31;;;;;;;2.90;2.08;;;;;;;;;;12850764;23;20020;-88
2023/07/16 10:23:43;;;;;;;4.70;1.70;;;;;;;;;;12824736;23;20550;-88
2023/07/16 10:35:37;;;;;;;2.47;1.70;;;;;;;;;;12862484;23;20024;-89
2023/07/16 10:40:43;;;;;;;3.63;1.90;;;;;;;;;;12827213;23;20028;-88
2023/07/16 10:45:47;;;;;;;3.38;1.88;;;;;;;;;;12827084;23;20028;-88
2023/07/16 10:50:55;;;;;;;3.00;1.58;;;;;;;;;;12853479;23;20028;-88
2023/07/16 10:56:01;;;;;;;2.42;1.25;;;;;;;;;;12853831;23;20458;-88
2023/07/16 11:29:16;;;;;;;3.55;2.08;;;;;;;;;;12783859;22;20209;-90
2023/07/16 11:34:20;;;;;;;;;;;;;;;;;;12888569;22;20016;-86
2023/07/16 11:39:29;;;;;;;6.13;2.58;;;;;;;;;;12887221;22;19919;-88
2023/07/16 11:44:37;;;;;;;3.65;2.42;;;;;;;;;;12913805;22;20161;-88
2023/07/16 11:49:44;;;;;;;5.22;2.40;;;;;;;;;;12888581;22;20020;-88
2023/07/16 11:54:52;;;;;;;5.20;2.80;;;;;;;;;;12889207;22;20506;-89
2023/07/16 12:00:00;;;;;;;4.70;2.55;;;;;;;;;;12888717;22;20111;-90
2023/07/16 12:05:04;;;;;;;;;;;;;;;;;;12912836;22;20028;-89
2023/07/16 12:10:09;;;;;;;5.65;3.00;;;;;;;;;;12886513;22;19915;-91
2023/07/16 12:15:17;;;;;;;;;;;;;;;;;;12889285;22;20059;-92
2023/07/16 12:20:21;;;;;;;5.88;2.88;;;;;;;;;;12913965;22;19923;-93
2023/07/16 12:25:27;;;;;;;4.03;2.38;;;;;;;;;;12887428;22;20023;-88
2023/07/16 12:30:37;;;;;;;3.78;2.42;;;;;;;;;;12890332;22;20174;-89
2023/07/16 12:35:41;;;;;;;3.42;1.80;;;;;;;;;;12891087;23;20020;-90
2023/07/16 12:40:46;;;;;;;3.45;2.28;;;;;;;;;;12914381;22;20047;-90
2023/07/16 12:45:51;;;;;;;;;;;;;;;;;;12884286;23;20039;-87
2023/07/16 12:50:55;;;;;;;4.90;2.10;;;;;;;;;;12884991;22;19922;-92
2023/07/16 12:56:02;;;;;;;4.07;2.33;;;;;;;;;;12912872;22;20535;-89
2023/07/16 13:01:10;;;;;;;3.75;2.70;;;;;;;;;;12887641;22;20056;-89
2023/07/16 13:06:14;;;;;;;4.35;2.42;;;;;;;;;;12886802;23;20051;-88
2023/07/16 13:11:18;;;;;;;4.43;2.80;;;;;;;;;;12887412;22;20024;-88
2023/07/16 13:16:24;;;;;;;4.13;2.27;;;;;;;;;;12886726;23;20074;-90
2023/07/16 13:21:28;;;;;;;7.78;3.15;;;;;;;;;;12882874;22;20035;-87
2023/07/16 13:26:31;;;;;;;5.60;2.47;;;;;;;;;;12883266;23;20467;-88
2023/07/16 13:31:36;;;;;;;4.25;2.40;;;;;;;;;;12911928;22;20043;-88
2023/07/16 13:36:40;;;;;;;3.67;2.50;;;;;;;;;;12885167;23;20034;-89
2023/07/16 13:41:44;;;;;;;8.88;2.80;;;;;;;;;;12880661;22;20056;-88
2023/07/16 13:47:03;;;;;;;5.30;2.72;;;;;;;;;;12884435;23;20028;-89
2023/07/16 13:52:07;;;;;;;4.80;2.80;;;;;;;;;;12911613;22;20100;-88
2023/07/16 13:57:12;;;;;;;3.33;2.17;;;;;;;;;;12884983;23;20497;-90
2023/07/16 14:02:24;;;;;;;4.80;3.33;;;;;;;;;;12885362;22;20530;-90
2023/07/16 14:07:38;;;;;;;3.92;2.95;;;;;;;;;;12887610;22;20047;-88
2023/07/16 14:12:45;;;;;;;4.38;2.53;;;;;;;;;;12889789;22;20576;-94
2023/07/16 14:17:52;;;;;;;4.60;3.30;;;;;;;;;;12889738;22;20024;-89
2023/07/16 14:22:59;;;;;;;4.25;2.38;;;;;;;;;;12888810;22;20044;-89
2023/07/16 14:28:05;;;;;;;4.18;2.45;;;;;;;;;;12889559;22;20028;-90
2023/07/16 14:33:13;;;;;;;3.63;2.50;;;;;;;;;;12889823;22;20048;-92
2023/07/16 14:38:20;;;;;;;4.10;2.90;;;;;;;;;;12891146;22;20016;-89
2023/07/16 14:43:24;;;;;;;3.80;2.60;;;;;;;;;;12917484;22;20024;-92
2023/07/16 14:48:29;;;;;;;3.47;2.13;;;;;;;;;;12889282;22;20032;-87
2023/07/16 14:53:35;;;;;;;5.78;2.97;;;;;;;;;;12872488;22;20016;-94
2023/07/16 14:58:38;;;;;;;3.55;2.33;;;;;;;;;;12889144;22;20099;-88
2023/07/16 15:03:45;;;;;;;5.15;2.55;;;;;;;;;;12889692;22;20024;-88
2023/07/16 15:08:51;;;;;;;4.53;2.40;;;;;;;;;;12916778;22;20020;-88
2023/07/16 15:13:57;;;;;;;;;;;;;;;;;;12891706;22;20028;-88
2023/07/16 15:19:04;;;;;;;5.25;2.88;;;;;;;;;;12889591;22;19916;-89
2023/07/16 15:24:08;;;;;;;2.92;2.10;;;;;;;;;;12886266;22;20034;-88
2023/07/16 15:29:14;;;;;;;3.63;2.38;;;;;;;;;;12861149;22;20508;-89
2023/07/16 15:34:21;;;;;;;4.88;2.42;;;;;;;;;;12883537;22;20047;-86
2023/07/16 15:39:28;;;;;;;3.42;2.42;;;;;;;;;;12884090;22;20606;-89
2023/07/16 15:44:34;;;;;;;6.03;3.50;;;;;;;;;;12887959;22;20020;-89
2023/07/16 15:49:39;;;;;;;4.70;2.95;;;;;;;;;;12911674;22;20537;-88
2023/07/16 15:54:42;;;;;;;3.78;2.72;;;;;;;;;;12885392;22;20459;-89
2023/07/16 15:59:48;;;;;;;5.05;2.67;;;;;;;;;;12881915;22;20500;-88
2023/07/16 16:04:58;;;;;;;4.93;2.58;;;;;;;;;;12885189;22;20031;-91
2023/07/16 16:10:04;;;;;;;2.85;2.00;;;;;;;;;;12910944;22;20032;-88
2023/07/16 16:15:09;;;;;;;4.22;2.30;;;;;;;;;;12886320;22;20047;-88
2023/07/16 16:20:14;;;;;;;5.05;3.33;;;;;;;;;;12884626;22;20095;-88
2023/07/16 16:25:21;;;;;;;5.13;3.22;;;;;;;;;;12889586;22;20091;-88
2023/07/16 16:30:25;;;;;;;4.43;2.60;;;;;;;;;;12885010;22;20055;-87
2023/07/16 16:35:32;;;;;;;4.57;2.70;;;;;;;;;;12886478;23;20027;-90
2023/07/16 16:40:39;;;;;;;3.30;2.35;;;;;;;;;;12885696;22;20031;-89
2023/07/16 16:45:45;;;;;;;3.90;2.58;;;;;;;;;;12890663;23;20106;-89
2023/07/16 16:50:54;;;;;;;4.83;2.43;;;;;;;;;;12917113;22;20107;-88
2023/07/16 16:55:59;;;;;;;3.45;2.03;;;;;;;;;;12881056;23;20270;-88
2023/07/16 17:01:03;;;;;;;4.90;2.77;;;;;;;;;;12883031;22;20024;-88
2023/07/16 17:06:10;;;;;;;3.88;2.60;;;;;;;;;;12903508;22;20035;-87
2023/07/16 17:11:16;;;;;;;4.82;2.63;;;;;;;;;;12873567;22;20024;-88
2023/07/16 17:16:20;;;;;;;4.60;2.10;;;;;;;;;;12877548;23;20027;-87
2023/07/16 17:21:26;;;;;;;4.40;2.20;;;;;;;;;;12914225;22;20028;-86
2023/07/16 17:26:29;;;;;;;4.07;2.30;;;;;;;;;;12878272;23;20400;-88
2023/07/16 17:31:34;;;;;;;3.47;2.17;;;;;;;;;;12912676;22;20031;-87
2023/07/16 17:36:42;;;;;;;4.47;2.67;;;;;;;;;;12912234;22;20039;-88
2023/07/16 17:42:05;;;;;;;4.57;2.58;;;;;;;;;;12890194;22;20122;-88
2023/07/16 17:47:09;;;;;;;4.28;2.40;;;;;;;;;;12878426;23;20103;-88
2023/07/16 17:52:16;;;;;;;5.78;2.63;;;;;;;;;;12884999;22;20111;-87
2023/07/16 17:57:23;;;;;;;3.47;2.40;;;;;;;;;;12906165;22;20725;-88
2023/07/16 18:02:29;;;;;;;2.60;2.00;;;;;;;;;;12910752;22;20024;-89
2023/07/16 18:07:35;;;;;;;3.95;2.10;;;;;;;;;;12929821;22;20440;-86
2023/07/16 18:12:38;;;;;;;3.67;2.23;;;;;;;;;;12883317;22;20026;-88
2023/07/16 18:17:45;;;;;;;4.90;2.38;;;;;;;;;;12904357;22;20020;-87
2023/07/16 18:22:54;;;;;;;3.03;1.63;;;;;;;;;;12882641;22;20027;-89
2023/07/16 18:27:58;;;;;;;3.00;1.67;;;;;;;;;;12871565;22;20099;-88
2023/07/16 18:33:04;;;;;;;4.35;2.03;;;;;;;;;;12907504;22;20024;-87
2023/07/16 18:38:09;;;;;;;3.30;2.20;;;;;;;;;;12901856;22;20020;-89
2023/07/16 18:43:13;;;;;;;2.08;1.88;;;;;;;;;;12881262;22;20362;-87
2023/07/16 18:48:21;;;;;;;3.00;1.85;;;;;;;;;;12874377;22;20020;-87
2023/07/16 18:53:27;;;;;;;3.30;2.17;;;;;;;;;;12884642;22;20027;-87
2023/07/16 18:58:31;;;;;;;3.83;2.05;;;;;;;;;;12884966;22;20020;-87
2023/07/16 19:03:37;;;;;;;3.40;1.80;;;;;;;;;;12884876;22;20486;-87
2023/07/16 19:08:42;;;;;;;2.05;1.58;;;;;;;;;;12884484;22;20375;-87
2023/07/16 19:13:46;;;;;;;2.67;1.67;;;;;;;;;;12884845;22;20464;-88
2023/07/16 19:18:49;;;;;;;3.60;1.70;;;;;;;;;;12883759;22;20638;-88
2023/07/16 19:23:57;;;;;;;4.68;2.05;;;;;;;;;;12886456;22;20027;-88
2023/07/16 19:29:01;;;;;;;2.80;1.70;;;;;;;;;;12901227;22;20035;-88
2023/07/16 19:34:10;;;;;;;2.80;1.50;;;;;;;;;;12883521;22;20024;-90
2023/07/16 19:39:16;;;;;;;3.75;1.58;;;;;;;;;;12881132;22;20038;-89
2023/07/16 19:44:22;;;;;;;1.83;1.60;;;;;;;;;;12883211;22;20363;-90
2023/07/16 19:49:27;;;;;;;;;;;;;;;;;;12884246;22;20020;-89
2023/07/16 19:54:32;;;;;;;2.20;1.60;;;;;;;;;;12884392;22;19963;-89
2023/07/16 19:59:39;;;;;;;2.08;1.63;;;;;;;;;;12914804;22;20020;-92
2023/07/16 20:04:42;;;;;;;2.85;1.83;;;;;;;;;;12886690;22;20044;-94
2023/07/16 20:09:51;;;;;;;2.13;1.88;;;;;;;;;;12887432;22;20051;-90
2023/07/16 20:14:54;;;;;;;2.58;1.55;;;;;;;;;;12872453;22;20028;-89
2023/07/16 20:19:58;;;;;;;4.78;2.00;;;;;;;;;;12875741;22;20577;-90
2023/07/16 20:25:04;;;;;;;3.78;2.25;;;;;;;;;;12886891;22;20028;-94
2023/07/16 20:30:10;;;;;;;3.88;2.03;;;;;;;;;;12886024;22;20032;-93
2023/07/16 20:35:15;;;;;;;3.17;1.90;;;;;;;;;;12885241;22;20032;-92
2023/07/16 20:40:21;;;;;;;4.03;2.40;;;;;;;;;;12886208;22;20030;-93
2023/07/16 20:45:27;;;;;;;2.75;2.10;;;;;;;;;;12885198;22;20032;-90
2023/07/16 20:50:31;;;;;;;2.83;1.92;;;;;;;;;;12885286;22;20078;-94
2023/07/16 20:55:39;;;;;;;3.63;2.25;;;;;;;;;;12884534;23;20024;-89
2023/07/16 21:00:47;;;;;;;4.03;2.50;;;;;;;;;;12869466;22;20534;-89
2023/07/16 21:05:53;;;;;;;4.65;1.90;;;;;;;;;;12884514;23;20027;-90
2023/07/16 21:11:01;;;;;;;6.20;2.10;;;;;;;;;;12885038;22;20517;-90
2023/07/16 21:16:35;;;;;;;3.22;2.00;;;;;;;;;;12923632;23;20024;-89
2023/07/16 21:29:43;;;;;;;4.13;2.28;;;;;;;;;;12947082;22;20452;-90
